createdAt,value
2019-04-22T00:01:56.904Z,10.40
2019-04-22T00:04:33.844Z,10.40
2019-04-22T00:07:15.948Z,10.30
2019-04-22T00:09:54.947Z,10.30
2019-04-22T00:12:30.714Z,10.30
2019-04-22T00:14:48.065Z,10.10
2019-04-22T00:17:30.169Z,10.20
2019-04-22T00:19:57.686Z,10.30
2019-04-22T00:22:27.439Z,10.20
2019-04-22T00:25:03.564Z,10.20
2019-04-22T00:27:34.337Z,10.10
2019-04-22T00:30:09.096Z,10.20
2019-04-22T00:32:49.516Z,10.10
2019-04-22T00:35:19.787Z,9.90
2019-04-22T00:37:56.755Z,10.00
2019-04-22T00:40:29.673Z,10.00
2019-04-22T00:45:26.973Z,10.00
2019-04-22T00:48:01.061Z,9.90
2019-04-22T00:50:33.907Z,9.90
2019-04-22T00:53:03.788Z,10.00
2019-04-22T00:55:42.376Z,10.20
2019-04-22T00:58:12.414Z,10.10
2019-04-22T01:00:37.587Z,10.00
2019-04-22T01:03:16.125Z,9.90
2019-04-22T01:05:40.426Z,9.80
2019-04-22T01:08:17.894Z,9.80
2019-04-22T01:10:47.893Z,9.80
2019-04-22T01:13:22.857Z,9.70
2019-04-22T01:15:55.675Z,9.60
2019-04-22T01:18:21.014Z,9.60
2019-04-22T01:23:26.296Z,9.50
2019-04-22T01:25:51.824Z,9.50
2019-04-22T01:28:22.288Z,9.40
2019-04-22T01:30:49.001Z,9.30
2019-04-22T01:33:19.474Z,9.40
2019-04-22T01:36:04.005Z,9.40
2019-04-22T01:38:31.584Z,9.30
2019-04-22T01:41:20.467Z,9.30
2019-04-22T01:43:52.214Z,9.20
2019-04-22T01:46:18.413Z,9.10
2019-04-22T01:48:47.328Z,9.10
2019-04-22T01:51:23.462Z,9.00
2019-04-22T01:53:50.078Z,9.00
2019-04-22T01:56:20.504Z,8.90
2019-04-22T01:58:44.251Z,8.90
2019-04-22T02:01:22.314Z,8.80
2019-04-22T02:03:54.689Z,8.70
2019-04-22T02:06:30.303Z,8.70
2019-04-22T02:09:04.171Z,8.70
2019-04-22T02:11:37.352Z,8.60
2019-04-22T02:14:04.582Z,8.70
2019-04-22T02:16:34.619Z,8.70
2019-04-22T02:19:11.692Z,8.60
2019-04-22T02:21:35.731Z,8.50
2019-04-22T02:24:08.986Z,8.50
2019-04-22T02:26:41.967Z,8.40
2019-04-22T02:29:17.169Z,8.20
2019-04-22T02:37:06.989Z,8.00
2019-04-22T02:39:17.407Z,7.90
2019-04-22T02:41:52.490Z,7.80
2019-04-22T02:44:31.477Z,7.80
2019-04-22T02:49:39.163Z,7.60
2019-04-22T02:51:53.949Z,7.60
2019-04-22T02:54:40.143Z,7.40
2019-04-22T02:57:03.240Z,7.40
2019-04-22T02:59:35.986Z,7.30
2019-04-22T03:02:15.064Z,7.30
2019-04-22T03:04:37.364Z,7.20
2019-04-22T03:07:05.349Z,7.10
2019-04-22T03:09:55.514Z,7.10
2019-04-22T03:14:45.969Z,7.00
2019-04-22T03:17:16.274Z,7.00
2019-04-22T03:19:50.636Z,6.90
2019-04-22T03:22:19.284Z,6.90
2019-04-22T03:25:06.133Z,6.80
2019-04-22T03:27:17.335Z,6.80
2019-04-22T03:40:28.678Z,6.60
2019-04-22T03:45:28.077Z,6.40
2019-04-22T03:47:52.908Z,6.50
2019-04-22T03:55:25.737Z,6.50
2019-04-22T04:00:36.053Z,6.40
2019-04-22T04:08:03.567Z,6.30
2019-04-22T04:13:08.503Z,6.40
2019-04-22T04:15:32.966Z,6.40
2019-04-22T04:18:06.882Z,6.60
2019-04-22T04:20:39.238Z,6.60
2019-04-22T04:28:29.476Z,6.80
2019-04-22T04:30:42.817Z,6.80
2019-04-22T04:33:15.703Z,6.90
2019-04-22T04:38:11.470Z,7.10
2019-04-22T04:41:07.974Z,7.20
2019-04-22T04:43:25.941Z,7.10
2019-04-22T04:48:34.816Z,6.80
2019-04-22T04:51:07.743Z,6.70
2019-04-22T04:56:07.407Z,7.10
2019-04-22T04:58:55.985Z,7.30
2019-04-22T05:01:05.654Z,7.50
2019-04-22T05:06:09.646Z,8.50
2019-04-22T05:11:10.950Z,9.00
2019-04-22T05:26:18.254Z,9.00
2019-04-22T05:28:44.815Z,9.10
2019-04-22T05:31:16.297Z,9.90
2019-04-22T05:33:41.196Z,10.10
2019-04-22T05:36:25.968Z,11.60
2019-04-22T05:38:53.662Z,13.60
2019-04-22T05:41:16.315Z,12.80
2019-04-22T05:43:50.225Z,12.80
2019-04-22T05:46:26.968Z,11.80
2019-04-22T05:48:54.203Z,10.70
2019-04-22T05:51:25.911Z,11.00
2019-04-22T05:53:53.914Z,11.40
2019-04-22T05:56:34.729Z,12.30
2019-04-22T05:58:58.242Z,12.60
2019-04-22T06:01:38.515Z,13.60
2019-04-22T06:04:08.751Z,12.30
2019-04-22T06:06:30.688Z,14.60
2019-04-22T06:11:36.147Z,14.20
2019-04-22T06:14:15.295Z,13.10
2019-04-22T06:16:51.060Z,13.10
2019-04-22T06:19:18.510Z,14.20
2019-04-22T06:21:55.782Z,14.50
2019-04-22T06:24:29.045Z,13.80
2019-04-22T06:29:41.379Z,14.50
2019-04-22T06:32:23.541Z,14.90
2019-04-22T06:34:38.896Z,15.60
2019-04-22T06:37:11.887Z,16.70
2019-04-22T06:42:07.843Z,15.40
2019-04-22T06:44:43.700Z,14.80
2019-04-22T06:47:14.558Z,15.00
2019-04-22T06:49:41.617Z,16.10
2019-04-22T06:52:17.760Z,17.60
2019-04-22T06:54:50.469Z,16.20
2019-04-22T06:57:30.822Z,16.40
2019-04-22T06:59:53.581Z,16.40
2019-04-22T07:02:23.853Z,18.10
2019-04-22T07:04:59.590Z,19.60
2019-04-22T07:07:41.746Z,17.60
2019-04-22T07:10:03.997Z,15.90
2019-04-22T07:15:03.012Z,15.70
2019-04-22T07:17:40.818Z,14.40
2019-04-22T07:19:58.113Z,15.00
2019-04-22T07:22:33.878Z,15.50
2019-04-22T07:25:06.689Z,15.90
2019-04-22T07:27:40.453Z,14.80
2019-04-22T07:30:15.279Z,16.80
2019-04-22T07:33:22.893Z,14.90
2019-04-22T07:35:47.423Z,13.40
2019-04-22T07:38:10.876Z,12.80
2019-04-22T07:40:44.967Z,12.40
2019-04-22T07:43:11.954Z,14.40
2019-04-22T07:45:42.670Z,15.90
2019-04-22T07:48:26.225Z,14.20
2019-04-22T07:51:02.503Z,15.30
2019-04-22T07:53:15.779Z,12.80
2019-04-22T07:55:49.019Z,12.50
2019-04-22T08:00:57.741Z,14.80
2019-04-22T08:03:34.900Z,15.20
2019-04-22T08:06:07.969Z,15.40
2019-04-22T08:13:32.658Z,14.30
2019-04-22T08:18:34.334Z,14.60
2019-04-22T08:21:07.624Z,15.40
2019-04-22T08:23:37.882Z,16.20
2019-04-22T08:26:04.873Z,16.00
2019-04-22T08:31:14.824Z,15.60
2019-04-22T08:33:46.592Z,15.70
2019-04-22T08:36:18.405Z,13.40
2019-04-22T08:38:54.254Z,12.70
2019-04-22T08:56:45.721Z,14.60
2019-04-22T08:59:14.916Z,14.20
2019-04-22T09:01:49.217Z,14.20
2019-04-22T09:04:16.137Z,13.30
2019-04-22T09:07:10.463Z,12.20
2019-04-22T09:09:27.167Z,12.00
2019-04-22T09:12:01.353Z,11.50
2019-04-22T09:14:45.703Z,11.90
2019-04-22T09:17:13.654Z,11.70
2019-04-22T09:19:28.389Z,13.40
2019-04-22T09:22:05.309Z,13.50
2019-04-22T09:24:35.679Z,13.50
2019-04-22T09:27:10.189Z,12.60
2019-04-22T09:29:41.550Z,13.80
2019-04-22T09:32:14.621Z,14.10
2019-04-22T09:34:40.176Z,12.20
2019-04-22T09:37:20.775Z,12.50
2019-04-22T09:39:51.692Z,12.20
2019-04-22T09:42:17.349Z,11.80
2019-04-22T09:44:48.750Z,12.50
2019-04-22T09:47:19.184Z,13.10
2019-04-22T09:49:55.066Z,12.50
2019-04-22T09:52:26.377Z,12.20
2019-04-22T09:54:59.868Z,13.30
2019-04-22T09:57:27.525Z,13.40
2019-04-22T10:00:02.406Z,13.50
2019-04-22T10:02:34.130Z,12.90
2019-04-22T10:05:00.147Z,12.90
2019-04-22T10:07:44.916Z,13.20
2019-04-22T10:10:09.376Z,13.40
2019-04-22T10:12:36.944Z,13.30
2019-04-22T10:15:20.882Z,12.90
2019-04-22T10:17:37.719Z,13.60
2019-04-22T10:20:10.627Z,13.20
2019-04-22T10:22:46.457Z,13.00
2019-04-22T10:25:21.454Z,12.40
2019-04-22T10:27:53.625Z,12.90
2019-04-22T10:30:27.331Z,13.00
2019-04-22T10:32:50.871Z,13.40
2019-04-22T10:35:13.168Z,13.20
2019-04-22T10:37:40.388Z,13.20
2019-04-22T10:40:19.576Z,13.40
2019-04-22T10:42:51.437Z,13.60
2019-04-22T10:45:21.978Z,12.90
2019-04-22T10:47:52.293Z,12.40
2019-04-22T10:50:28.151Z,12.10
2019-04-22T10:52:59.337Z,12.40
2019-04-22T10:55:29.554Z,12.70
2019-04-22T10:57:59.376Z,13.00
2019-04-22T11:00:29.355Z,13.20
2019-04-22T11:03:00.109Z,12.90
2019-04-22T11:05:30.291Z,13.40
2019-04-22T11:08:04.905Z,13.50
2019-04-22T11:10:44.532Z,13.10
2019-04-22T11:13:04.975Z,12.60
2019-04-22T11:15:35.089Z,12.80
2019-04-22T11:18:05.602Z,13.40
2019-04-22T11:20:35.767Z,14.30
2019-04-22T11:23:08.880Z,13.00
2019-04-22T11:25:39.559Z,13.00
2019-04-22T11:28:11.693Z,13.30
2019-04-22T11:30:42.742Z,13.60
2019-04-22T11:33:14.154Z,14.00
2019-04-22T11:35:45.767Z,13.70
2019-04-22T11:38:17.054Z,14.30
2019-04-22T11:40:51.756Z,13.00
2019-04-22T11:43:19.823Z,12.80
2019-04-22T11:45:51.108Z,12.70
2019-04-22T11:48:21.459Z,12.90
2019-04-22T11:50:51.661Z,13.20
2019-04-22T11:53:22.633Z,13.50
2019-04-22T11:55:53.141Z,13.90
2019-04-22T11:58:24.447Z,13.70
2019-04-22T12:00:55.371Z,13.70
2019-04-22T12:03:26.860Z,13.60
2019-04-22T12:05:57.797Z,13.20
2019-04-22T12:08:31.177Z,13.10
2019-04-22T12:11:04.355Z,12.80
2019-04-22T12:13:39.909Z,13.60
2019-04-22T12:16:11.499Z,14.20
2019-04-22T12:18:42.989Z,14.50
2019-04-22T12:21:13.153Z,13.90
2019-04-22T12:23:43.503Z,13.70
2019-04-22T12:26:18.443Z,13.90
2019-04-22T12:28:46.719Z,14.20
2019-04-22T12:31:17.655Z,14.10
2019-04-22T12:33:47.736Z,14.10
2019-04-22T12:36:18.220Z,14.40
2019-04-22T12:38:49.374Z,14.40
2019-04-22T12:41:19.762Z,13.70
2019-04-22T12:43:49.696Z,13.90
2019-04-22T12:46:20.477Z,13.80
2019-04-22T12:48:51.950Z,14.50
2019-04-22T12:51:23.091Z,15.50
2019-04-22T12:53:52.948Z,15.60
2019-04-22T12:56:23.877Z,15.10
2019-04-22T12:58:53.978Z,15.30
2019-04-22T13:01:24.634Z,15.60
2019-04-22T13:04:00.256Z,15.40
2019-04-22T13:06:25.969Z,15.30
2019-04-22T13:08:56.600Z,15.30
2019-04-22T13:11:30.852Z,15.50
2019-04-22T13:14:00.825Z,15.40
2019-04-22T13:16:31.239Z,15.40
2019-04-22T13:19:06.965Z,14.90
2019-04-22T13:21:36.865Z,15.10
2019-04-22T13:24:07.100Z,14.70
2019-04-22T13:26:38.104Z,14.70
2019-04-22T13:29:10.701Z,14.90
2019-04-22T13:31:40.571Z,15.10
2019-04-22T13:34:20.045Z,15.10
2019-04-22T13:36:44.570Z,15.40
2019-04-22T13:39:13.331Z,15.60
2019-04-22T13:41:48.726Z,15.30
2019-04-22T13:44:14.738Z,15.40
2019-04-22T13:49:49.469Z,15.30
2019-04-22T13:52:36.036Z,15.50
2019-04-22T13:54:14.144Z,15.20
2019-04-22T13:57:19.969Z,15.80
2019-04-22T13:59:36.618Z,16.00
2019-04-22T14:02:37.042Z,16.10
2019-04-22T14:05:08.747Z,15.90
2019-04-22T14:07:38.885Z,16.40
2019-04-22T14:10:09.188Z,16.50
2019-04-22T14:12:39.185Z,16.40
2019-04-22T14:15:09.862Z,16.60
2019-04-22T14:17:40.887Z,16.90
2019-04-22T14:20:12.982Z,16.70
2019-04-22T14:22:44.293Z,16.80
2019-04-22T14:25:16.488Z,17.10
2019-04-22T14:27:54.398Z,17.30
2019-04-22T14:30:30.505Z,17.30
2019-04-22T14:33:00.533Z,17.10
2019-04-22T14:35:31.284Z,17.20
2019-04-22T14:38:01.447Z,17.60
2019-04-22T14:40:32.939Z,17.70
2019-04-22T14:43:25.371Z,18.00
2019-04-22T14:48:36.227Z,18.00
2019-04-22T14:50:56.255Z,18.30
2019-04-22T14:53:30.847Z,18.70
2019-04-22T14:55:42.267Z,18.80
2019-04-22T14:58:13.046Z,18.50
2019-04-22T15:00:45.739Z,18.30
2019-04-22T15:03:15.574Z,18.50
2019-04-22T15:05:46.241Z,18.10
2019-04-22T15:08:17.136Z,17.60
2019-04-22T15:10:47.295Z,17.30
2019-04-22T15:13:18.188Z,17.20
2019-04-22T15:16:03.807Z,17.10
2019-04-22T15:19:05.203Z,17.20
2019-04-22T15:21:36.579Z,17.30
2019-04-22T15:24:27.364Z,17.30
2019-04-22T15:26:58.746Z,17.30
2019-04-22T15:29:29.743Z,17.40
2019-04-22T15:31:59.928Z,17.40
2019-04-22T15:34:30.612Z,17.40
2019-04-22T15:37:02.318Z,17.40
2019-04-22T15:39:36.355Z,17.30
2019-04-22T15:42:17.370Z,17.30
2019-04-22T15:44:39.819Z,17.20
2019-04-22T15:47:11.127Z,17.20
2019-04-22T15:49:42.260Z,17.20
2019-04-22T15:52:14.903Z,17.20
2019-04-22T15:54:49.942Z,17.20
2019-04-22T15:57:17.189Z,17.30
2019-04-22T16:00:02.281Z,17.50
2019-04-22T16:02:21.449Z,17.60
2019-04-22T16:04:52.775Z,17.70
2019-04-22T16:07:25.974Z,17.90
2019-04-22T16:09:57.782Z,18.10
2019-04-22T16:12:34.534Z,18.20
2019-04-22T16:14:59.689Z,18.20
2019-04-22T16:17:30.640Z,18.40
2019-04-22T16:20:01.555Z,18.50
2019-04-22T16:22:36.938Z,18.30
2019-04-22T16:25:33.682Z,18.00
2019-04-22T16:28:03.545Z,17.90
2019-04-22T16:30:33.258Z,17.80
2019-04-22T16:33:13.194Z,17.60
2019-04-22T16:35:52.939Z,17.50
2019-04-22T16:38:37.321Z,17.30
2019-04-22T16:41:06.742Z,17.10
2019-04-22T16:43:36.673Z,17.00
2019-04-22T16:46:07.618Z,16.90
2019-04-22T16:48:38.102Z,16.80
2019-04-22T16:51:16.078Z,16.70
2019-04-22T16:53:45.521Z,16.70
2019-04-22T16:56:20.807Z,16.60
2019-04-22T16:58:52.679Z,16.60
2019-04-22T17:01:50.930Z,16.60
2019-04-22T17:04:34.555Z,16.60
2019-04-22T17:07:05.848Z,16.60
2019-04-22T17:09:37.508Z,16.70
2019-04-22T17:12:07.931Z,16.80
2019-04-22T17:14:44.195Z,16.90
2019-04-22T17:17:10.578Z,16.90
2019-04-22T17:19:41.690Z,16.90
2019-04-22T17:22:11.573Z,17.00
2019-04-22T17:24:45.708Z,17.00
2019-04-22T17:27:15.577Z,16.80
2019-04-22T17:29:46.396Z,16.70
2019-04-22T17:32:19.235Z,16.60
2019-04-22T17:34:49.586Z,16.60
2019-04-22T17:37:25.804Z,16.70
2019-04-22T17:40:13.275Z,16.60
2019-04-22T17:42:42.399Z,16.50
2019-04-22T17:45:22.008Z,16.40
2019-04-22T17:48:12.854Z,16.30
2019-04-22T17:50:54.889Z,16.20
2019-04-22T17:53:22.617Z,16.10
2019-04-22T17:56:10.282Z,16.00
2019-04-22T17:58:20.641Z,15.80
2019-04-22T18:00:51.962Z,15.70
2019-04-22T18:03:14.763Z,15.80
2019-04-22T18:05:43.803Z,15.70
2019-04-22T18:08:27.463Z,15.70
2019-04-22T18:10:58.657Z,15.50
2019-04-22T18:13:38.182Z,15.40
2019-04-22T18:16:02.324Z,15.40
2019-04-22T18:18:37.178Z,15.30
2019-04-22T18:21:02.024Z,15.30
2019-04-22T18:23:24.856Z,15.20
2019-04-22T18:26:05.105Z,15.20
2019-04-22T18:28:45.334Z,15.20
2019-04-22T18:31:06.304Z,15.10
2019-04-22T18:33:46.072Z,15.00
2019-04-22T18:36:14.102Z,15.10
2019-04-22T18:38:56.494Z,15.10
2019-04-22T18:41:20.480Z,14.90
2019-04-22T18:43:51.775Z,14.90
2019-04-22T18:46:20.851Z,14.80
2019-04-22T18:48:58.147Z,14.80
2019-04-22T18:51:40.603Z,14.80
2019-04-22T18:54:18.268Z,14.70
2019-04-22T18:56:52.500Z,14.70
2019-04-22T18:59:17.122Z,14.70
2019-04-22T19:01:39.685Z,14.70
2019-04-22T19:04:17.177Z,14.50
2019-04-22T19:07:00.379Z,14.60
2019-04-22T19:09:45.670Z,14.50
2019-04-22T19:12:34.056Z,14.40
2019-04-22T19:14:46.386Z,14.30
2019-04-22T19:17:24.980Z,14.30
2019-04-22T19:19:54.099Z,14.30
2019-04-22T19:22:19.548Z,14.30
2019-04-22T19:24:41.948Z,14.20
2019-04-22T19:27:20.157Z,14.20
2019-04-22T19:29:52.408Z,14.20
2019-04-22T19:32:27.332Z,14.10
2019-04-22T19:34:54.149Z,14.00
2019-04-22T19:37:24.347Z,14.00
2019-04-22T19:40:04.926Z,13.90
2019-04-22T19:42:40.228Z,14.00
2019-04-22T19:45:04.609Z,13.90
2019-04-22T19:47:40.143Z,13.90
2019-04-22T19:50:12.842Z,13.80
2019-04-22T19:52:55.095Z,13.80
2019-04-22T19:55:12.349Z,13.80
2019-04-22T19:57:43.367Z,13.80
2019-04-22T20:00:28.308Z,13.70
2019-04-22T20:03:29.453Z,13.70
2019-04-22T20:05:59.444Z,13.80
2019-04-22T20:08:34.253Z,13.70
2019-04-22T20:11:13.315Z,13.60
2019-04-22T20:13:41.369Z,13.60
2019-04-22T20:16:03.448Z,13.50
2019-04-22T20:18:47.289Z,13.50
2019-04-22T20:21:17.929Z,13.50
2019-04-22T20:23:39.322Z,13.50
2019-04-22T20:26:16.199Z,13.40
2019-04-22T20:28:55.957Z,13.50
2019-04-22T20:31:24.492Z,13.40
2019-04-22T20:34:05.961Z,13.40
2019-04-22T20:38:59.628Z,13.30
2019-04-22T20:41:26.201Z,13.40
2019-04-22T20:44:13.309Z,13.30
2019-04-22T20:46:36.103Z,13.10
2019-04-22T20:49:04.852Z,13.20
2019-04-22T20:51:50.253Z,13.10
2019-04-22T20:54:11.944Z,13.00
2019-04-22T20:56:41.557Z,12.90
2019-04-22T20:59:12.594Z,12.90
2019-04-22T21:01:43.107Z,12.90
2019-04-22T21:04:01.553Z,12.80
2019-04-22T21:06:47.738Z,12.80
2019-04-22T21:09:25.398Z,12.70
2019-04-22T21:11:48.346Z,12.70
2019-04-22T21:14:21.641Z,12.70
2019-04-22T21:16:56.452Z,12.60
2019-04-22T21:19:35.208Z,12.60
2019-04-22T21:22:03.675Z,12.50
2019-04-22T21:24:29.612Z,12.40
2019-04-22T21:27:09.240Z,12.50
2019-04-22T21:29:32.144Z,12.50
2019-04-22T21:32:09.042Z,12.40
2019-04-22T21:34:51.064Z,12.40
2019-04-22T21:37:20.629Z,12.40
2019-04-22T21:39:40.414Z,12.20
2019-04-22T21:42:24.985Z,12.20
2019-04-22T21:44:47.775Z,12.20
2019-04-22T21:47:29.015Z,12.10
2019-04-22T21:50:19.650Z,12.20
2019-04-22T21:52:28.218Z,12.10
2019-04-22T21:55:06.916Z,12.00
2019-04-22T21:57:39.777Z,12.00
2019-04-22T22:00:22.661Z,12.00
2019-04-22T22:02:45.580Z,11.90
2019-04-22T22:05:10.158Z,11.90
2019-04-22T22:07:29.568Z,11.80
2019-04-22T22:10:16.887Z,11.80
2019-04-22T22:12:54.867Z,11.70
2019-04-22T22:15:24.827Z,11.70
2019-04-22T22:17:58.693Z,11.60
2019-04-22T22:20:25.679Z,11.60
2019-04-22T22:23:12.425Z,11.60
2019-04-22T22:25:30.123Z,11.60
2019-04-22T22:28:17.076Z,11.60
2019-04-22T22:30:48.468Z,11.40
2019-04-22T22:33:11.173Z,11.40
2019-04-22T22:35:42.430Z,11.40
2019-04-22T22:38:13.297Z,11.30
2019-04-22T22:40:28.142Z,11.40
2019-04-22T22:42:55.878Z,11.40
2019-04-22T22:45:33.806Z,11.30
2019-04-22T22:48:21.677Z,11.20
2019-04-22T22:50:47.753Z,11.10
2019-04-22T22:53:31.109Z,11.10
2019-04-22T22:55:53.313Z,11.20
2019-04-22T22:58:28.002Z,11.10
2019-04-22T23:00:52.499Z,11.10
2019-04-22T23:06:03.204Z,11.00
2019-04-22T23:08:31.192Z,11.10
2019-04-22T23:11:23.488Z,11.00
2019-04-22T23:13:40.426Z,11.00
2019-04-22T23:15:58.358Z,10.90
2019-04-22T23:18:16.143Z,10.90
2019-04-22T23:20:48.335Z,10.80
2019-04-22T23:23:41.898Z,10.80
2019-04-22T23:26:04.569Z,10.70
2019-04-22T23:28:50.304Z,10.70
2019-04-22T23:34:26.535Z,10.50
2019-04-22T23:37:27.736Z,10.50
2019-04-22T23:40:17.451Z,10.50
2019-04-22T23:42:41.797Z,10.50
2019-04-22T23:45:19.211Z,10.50
2019-04-22T23:47:35.131Z,10.50
2019-04-22T23:50:18.269Z,10.40
2019-04-22T23:53:04.846Z,10.40
2019-04-22T23:55:32.833Z,10.40
2019-04-22T23:58:02.695Z,10.30
